sensor_id;sensor_type;location;lat;lon;timestamp;pressure;altitude;pressure_sealevel;temperature;humidity
24651;BME280;12783;48.824;8.662;2023-06-22T00:00:02;-23419.47;;;24.90;100.00
24651;BME280;12783;48.824;8.662;2023-06-22T00:02:35;-23417.88;;;24.84;100.00
24651;BME280;12783;48.824;8.662;2023-06-22T00:05:02;-23417.75;;;24.84;100.00
24651;BME280;12783;48.824;8.662;2023-06-22T00:07:29;-23419.34;;;24.89;100.00
24651;BME280;12783;48.824;8.662;2023-06-22T00:09:56;-23419.19;;;24.89;100.00
24651;BME280;12783;48.824;8.662;2023-06-22T00:12:23;-23416.00;;;24.77;100.00
24651;BME280;12783;48.824;8.662;2023-06-22T00:14:50;-23416.72;;;24.80;100.00
24651;BME280;12783;48.824;8.662;2023-06-22T00:17:18;-23415.28;;;24.75;100.00
24651;BME280;12783;48.824;8.662;2023-06-22T00:19:47;-23415.72;;;24.76;100.00
24651;BME280;12783;48.824;8.662;2023-06-22T00:22:14;-23413.25;;;24.68;100.00
24651;BME280;12783;48.824;8.662;2023-06-22T00:24:43;-23411.34;;;24.61;100.00
24651;BME280;12783;48.824;8.662;2023-06-22T00:27:10;-23411.94;;;24.63;100.00
24651;BME280;12783;48.824;8.662;2023-06-22T00:29:37;-23416.28;;;24.78;100.00
24651;BME280;12783;48.824;8.662;2023-06-22T00:32:04;-23418.59;;;24.87;100.00
24651;BME280;12783;48.824;8.662;2023-06-22T00:34:31;-23413.97;;;24.70;100.00
24651;BME280;12783;48.824;8.662;2023-06-22T00:36:58;-23411.06;;;24.60;100.00
24651;BME280;12783;48.824;8.662;2023-06-22T00:39:26;-23409.75;;;24.55;100.00
24651;BME280;12783;48.824;8.662;2023-06-22T00:41:53;-23410.78;;;24.59;100.00
24651;BME280;12783;48.824;8.662;2023-06-22T00:44:20;-23411.06;;;24.60;100.00
24651;BME280;12783;48.824;8.662;2023-06-22T00:46:46;-23410.63;;;24.58;100.00
24651;BME280;12783;48.824;8.662;2023-06-22T00:49:13;-23413.25;;;24.68;100.00
24651;BME280;12783;48.824;8.662;2023-06-22T00:51:40;-23412.81;;;24.66;100.00
24651;BME280;12783;48.824;8.662;2023-06-22T00:54:12;-23413.97;;;24.70;100.00
24651;BME280;12783;48.824;8.662;2023-06-22T00:56:43;-23416.59;;;24.79;100.00
24651;BME280;12783;48.824;8.662;2023-06-22T00:59:10;-23414.84;;;24.73;100.00
24651;BME280;12783;48.824;8.662;2023-06-22T01:01:39;-23415.72;;;24.76;100.00
24651;BME280;12783;48.824;8.662;2023-06-22T01:04:08;-23416.28;;;24.78;100.00
24651;BME280;12783;48.824;8.662;2023-06-22T01:06:45;-23417.88;;;24.84;100.00
24651;BME280;12783;48.824;8.662;2023-06-22T01:09:27;-23416.72;;;24.80;100.00
24651;BME280;12783;48.824;8.662;2023-06-22T01:12:00;-23416.88;;;24.80;100.00
24651;BME280;12783;48.824;8.662;2023-06-22T01:14:41;-23416.88;;;24.80;100.00
24651;BME280;12783;48.824;8.662;2023-06-22T01:17:09;-23412.22;;;24.64;100.00
24651;BME280;12783;48.824;8.662;2023-06-22T01:19:49;-23415.41;;;24.75;100.00
24651;BME280;12783;48.824;8.662;2023-06-22T01:22:25;-23412.81;;;24.66;100.00
24651;BME280;12783;48.824;8.662;2023-06-22T01:25:19;-23412.97;;;24.67;100.00
24651;BME280;12783;48.824;8.662;2023-06-22T01:27:56;-23409.47;;;24.54;100.00
24651;BME280;12783;48.824;8.662;2023-06-22T01:30:28;-23406.44;;;24.44;100.00
24651;BME280;12783;48.824;8.662;2023-06-22T01:33:00;-23408.16;;;24.50;100.00
24651;BME280;12783;48.824;8.662;2023-06-22T01:35:28;-23406.44;;;24.44;100.00
24651;BME280;12783;48.824;8.662;2023-06-22T01:37:56;-23406.44;;;24.44;100.00
24651;BME280;12783;48.824;8.662;2023-06-22T01:40:23;-23404.81;;;24.38;100.00
24651;BME280;12783;48.824;8.662;2023-06-22T01:42:51;-23401.19;;;24.25;100.00
24651;BME280;12783;48.824;8.662;2023-06-22T01:45:19;-23402.66;;;24.30;100.00
24651;BME280;12783;48.824;8.662;2023-06-22T01:47:47;-23401.50;;;24.26;100.00
24651;BME280;12783;48.824;8.662;2023-06-22T01:50:15;-23401.34;;;24.26;100.00
24651;BME280;12783;48.824;8.662;2023-06-22T01:52:42;-23398.88;;;24.17;100.00
24651;BME280;12783;48.824;8.662;2023-06-22T01:55:09;-23399.59;;;24.20;100.00
24651;BME280;12783;48.824;8.662;2023-06-22T01:57:36;-23399.91;;;24.21;100.00
24651;BME280;12783;48.824;8.662;2023-06-22T02:00:23;-23402.94;;;24.31;100.00
24651;BME280;12783;48.824;8.662;2023-06-22T02:03:19;-23401.63;;;24.27;100.00
24651;BME280;12783;48.824;8.662;2023-06-22T02:06:01;-23401.78;;;24.27;100.00
24651;BME280;12783;48.824;8.662;2023-06-22T02:08:41;-23399.16;;;24.18;100.00
24651;BME280;12783;48.824;8.662;2023-06-22T02:11:10;-23397.88;;;24.13;100.00
24651;BME280;12783;48.824;8.662;2023-06-22T02:13:38;-23396.28;;;24.08;100.00
24651;BME280;12783;48.824;8.662;2023-06-22T02:16:13;-23397.72;;;24.13;100.00
24651;BME280;12783;48.824;8.662;2023-06-22T02:18:48;-23397.44;;;24.12;100.00
24651;BME280;12783;48.824;8.662;2023-06-22T02:21:19;-23395.09;;;24.04;100.00
24651;BME280;12783;48.824;8.662;2023-06-22T02:23:47;-23394.53;;;24.02;100.00
24651;BME280;12783;48.824;8.662;2023-06-22T02:26:17;-23394.81;;;24.03;100.00
24651;BME280;12783;48.824;8.662;2023-06-22T02:28:44;-23392.19;;;23.94;100.00
24651;BME280;12783;48.824;8.662;2023-06-22T02:31:12;-23385.53;;;23.70;100.00
24651;BME280;12783;48.824;8.662;2023-06-22T02:33:39;-23383.50;;;23.63;100.00
24651;BME280;12783;48.824;8.662;2023-06-22T02:36:06;-23379.13;;;23.48;100.00
24651;BME280;12783;48.824;8.662;2023-06-22T02:38:36;-23379.41;;;23.49;100.00
24651;BME280;12783;48.824;8.662;2023-06-22T02:41:03;-23381.88;;;23.57;100.00
24651;BME280;12783;48.824;8.662;2023-06-22T02:43:30;-23381.03;;;23.54;100.00
24651;BME280;12783;48.824;8.662;2023-06-22T02:45:57;-23379.56;;;23.49;100.00
24651;BME280;12783;48.824;8.662;2023-06-22T02:48:24;-23381.47;;;23.56;100.00
24651;BME280;12783;48.824;8.662;2023-06-22T02:50:51;-23383.78;;;23.64;100.00
24651;BME280;12783;48.824;8.662;2023-06-22T02:53:18;-23382.91;;;23.61;100.00
24651;BME280;12783;48.824;8.662;2023-06-22T02:55:46;-23382.03;;;23.58;100.00
24651;BME280;12783;48.824;8.662;2023-06-22T02:58:13;-23381.47;;;23.56;100.00
24651;BME280;12783;48.824;8.662;2023-06-22T03:00:40;-23378.13;;;23.44;100.00
24651;BME280;12783;48.824;8.662;2023-06-22T03:03:07;-23378.13;;;23.44;100.00
24651;BME280;12783;48.824;8.662;2023-06-22T03:05:34;-23376.81;;;23.39;100.00
24651;BME280;12783;48.824;8.662;2023-06-22T03:08:02;-23373.03;;;23.26;100.00
24651;BME280;12783;48.824;8.662;2023-06-22T03:10:28;-23368.38;;;23.10;100.00
24651;BME280;12783;48.824;8.662;2023-06-22T03:12:56;-23368.22;;;23.09;100.00
24651;BME280;12783;48.824;8.662;2023-06-22T03:15:23;-23367.06;;;23.05;100.00
24651;BME280;12783;48.824;8.662;2023-06-22T03:17:50;-23367.22;;;23.06;100.00
24651;BME280;12783;48.824;8.662;2023-06-22T03:20:16;-23367.06;;;23.05;100.00
24651;BME280;12783;48.824;8.662;2023-06-22T03:22:43;-23366.63;;;23.04;100.00
24651;BME280;12783;48.824;8.662;2023-06-22T03:25:10;-23365.03;;;22.98;100.00
24651;BME280;12783;48.824;8.662;2023-06-22T03:27:40;-23364.16;;;22.95;100.00
24651;BME280;12783;48.824;8.662;2023-06-22T03:30:09;-23362.84;;;22.90;100.00
24651;BME280;12783;48.824;8.662;2023-06-22T03:32:37;-23362.28;;;22.88;100.00
24651;BME280;12783;48.824;8.662;2023-06-22T03:35:04;-23364.44;;;22.96;100.00
24651;BME280;12783;48.824;8.662;2023-06-22T03:37:33;-23364.03;;;22.94;100.00
24651;BME280;12783;48.824;8.662;2023-06-22T03:40:00;-23364.59;;;22.96;100.00
24651;BME280;12783;48.824;8.662;2023-06-22T03:42:26;-23363.00;;;22.91;100.00
24651;BME280;12783;48.824;8.662;2023-06-22T03:44:53;-23364.03;;;22.94;100.00
24651;BME280;12783;48.824;8.662;2023-06-22T03:47:20;-23363.44;;;22.92;100.00
24651;BME280;12783;48.824;8.662;2023-06-22T03:49:47;-23363.56;;;22.93;100.00
24651;BME280;12783;48.824;8.662;2023-06-22T03:52:14;-23364.88;;;22.97;100.00
24651;BME280;12783;48.824;8.662;2023-06-22T03:54:41;-23365.75;;;23.01;100.00
24651;BME280;12783;48.824;8.662;2023-06-22T03:57:08;-23366.19;;;23.02;100.00
24651;BME280;12783;48.824;8.662;2023-06-22T03:59:35;-23366.63;;;23.04;100.00
24651;BME280;12783;48.824;8.662;2023-06-22T04:02:02;-23366.63;;;23.04;100.00
24651;BME280;12783;48.824;8.662;2023-06-22T04:04:29;-23367.78;;;23.08;100.00
24651;BME280;12783;48.824;8.662;2023-06-22T04:06:56;-23368.81;;;23.11;100.00
24651;BME280;12783;48.824;8.662;2023-06-22T04:09:23;-23372.31;;;23.24;100.00
24651;BME280;12783;48.824;8.662;2023-06-22T04:11:50;-23373.47;;;23.28;100.00
24651;BME280;12783;48.824;8.662;2023-06-22T04:14:17;-23373.47;;;23.28;100.00
24651;BME280;12783;48.824;8.662;2023-06-22T04:16:44;-23375.94;;;23.36;100.00
24651;BME280;12783;48.824;8.662;2023-06-22T04:19:10;-23377.38;;;23.41;100.00
24651;BME280;12783;48.824;8.662;2023-06-22T04:21:43;-23377.09;;;23.40;100.00
24651;BME280;12783;48.824;8.662;2023-06-22T04:24:11;-23376.50;;;23.38;100.00
24651;BME280;12783;48.824;8.662;2023-06-22T04:26:38;-23375.66;;;23.35;100.00
24651;BME280;12783;48.824;8.662;2023-06-22T04:29:08;-23377.69;;;23.42;100.00
24651;BME280;12783;48.824;8.662;2023-06-22T04:31:38;-23377.81;;;23.43;100.00
24651;BME280;12783;48.824;8.662;2023-06-22T04:34:06;-23379.13;;;23.48;100.00
24651;BME280;12783;48.824;8.662;2023-06-22T04:36:35;-23379.00;;;23.47;100.00
24651;BME280;12783;48.824;8.662;2023-06-22T04:39:15;-23381.16;;;23.55;100.00
24651;BME280;12783;48.824;8.662;2023-06-22T04:41:41;-23378.25;;;23.44;100.00
24651;BME280;12783;48.824;8.662;2023-06-22T04:44:17;80038.91;;;23.60;100.00
24651;BME280;12783;48.824;8.662;2023-06-22T04:46:52;59356.41;;;-144.89;100.00
24651;BME280;12783;48.824;8.662;2023-06-22T04:49:21;-23382.63;;;23.60;100.00
24651;BME280;12783;48.824;8.662;2023-06-22T04:51:48;-23374.78;;;23.32;100.00
24651;BME280;12783;48.824;8.662;2023-06-22T04:54:18;-23378.41;;;23.45;100.00
24651;BME280;12783;48.824;8.662;2023-06-22T04:56:45;-23380.72;;;23.53;100.00
24651;BME280;12783;48.824;8.662;2023-06-22T04:59:14;-23384.94;;;23.68;100.00
24651;BME280;12783;48.824;8.662;2023-06-22T05:01:41;-23382.31;;;23.59;100.00
24651;BME280;12783;48.824;8.662;2023-06-22T05:04:09;-23385.53;;;23.70;100.00
24651;BME280;12783;48.824;8.662;2023-06-22T05:06:36;-23386.97;;;23.75;100.00
24651;BME280;12783;48.824;8.662;2023-06-22T05:09:06;-23385.22;;;23.69;100.00
24651;BME280;12783;48.824;8.662;2023-06-22T05:11:33;-23384.78;;;23.67;100.00
24651;BME280;12783;48.824;8.662;2023-06-22T05:14:00;-23386.41;;;23.73;100.00
24651;BME280;12783;48.824;8.662;2023-06-22T05:16:27;-23387.13;;;23.76;100.00
24651;BME280;12783;48.824;8.662;2023-06-22T05:18:55;-23387.25;;;23.76;100.00
24651;BME280;12783;48.824;8.662;2023-06-22T05:21:24;-23389.88;;;23.85;100.00
24651;BME280;12783;48.824;8.662;2023-06-22T05:23:54;-23392.50;;;23.95;100.00
24651;BME280;12783;48.824;8.662;2023-06-22T05:26:21;-23391.63;;;23.92;100.00
24651;BME280;12783;48.824;8.662;2023-06-22T05:28:49;-23391.47;;;23.91;100.00
24651;BME280;12783;48.824;8.662;2023-06-22T05:31:17;-23393.06;;;23.97;100.00
24651;BME280;12783;48.824;8.662;2023-06-22T05:33:48;-23396.56;;;24.09;100.00
24651;BME280;12783;48.824;8.662;2023-06-22T05:36:15;-23395.97;;;24.07;100.00
24651;BME280;12783;48.824;8.662;2023-06-22T05:38:42;-23394.97;;;24.03;100.00
24651;BME280;12783;48.824;8.662;2023-06-22T05:41:09;-23393.81;;;23.99;100.00
24651;BME280;12783;48.824;8.662;2023-06-22T05:43:36;-23397.44;;;24.12;100.00
24651;BME280;12783;48.824;8.662;2023-06-22T05:46:04;-23395.97;;;24.07;100.00
24651;BME280;12783;48.824;8.662;2023-06-22T05:48:31;-23394.53;;;24.02;100.00
24651;BME280;12783;48.824;8.662;2023-06-22T05:50:58;59356.41;;;-144.89;100.00
24651;BME280;12783;48.824;8.662;2023-06-22T05:53:25;-23396.56;;;24.09;100.00
24651;BME280;12783;48.824;8.662;2023-06-22T05:55:52;-23401.06;;;24.25;100.00
24651;BME280;12783;48.824;8.662;2023-06-22T05:58:19;-23402.38;;;24.29;100.00
24651;BME280;12783;48.824;8.662;2023-06-22T06:00:46;-23404.69;;;24.38;100.00
24651;BME280;12783;48.824;8.662;2023-06-22T06:03:13;-23407.88;;;24.49;100.00
24651;BME280;12783;48.824;8.662;2023-06-22T06:05:44;-23405.69;;;24.41;100.00
24651;BME280;12783;48.824;8.662;2023-06-22T06:08:12;-23411.50;;;24.62;100.00
24651;BME280;12783;48.824;8.662;2023-06-22T06:10:39;-23415.72;;;24.76;100.00
24651;BME280;12783;48.824;8.662;2023-06-22T06:13:06;-23418.47;;;24.86;100.00
24651;BME280;12783;48.824;8.662;2023-06-22T06:15:34;-23425.84;;;25.12;100.00
24651;BME280;12783;48.824;8.662;2023-06-22T06:18:02;-23429.91;;;25.26;100.00
24651;BME280;12783;48.824;8.662;2023-06-22T06:20:32;-23432.81;;;25.37;100.00
24651;BME280;12783;48.824;8.662;2023-06-22T06:23:00;-23432.53;;;25.36;100.00
24651;BME280;12783;48.824;8.662;2023-06-22T06:25:27;-23433.69;;;25.40;100.00
24651;BME280;12783;48.824;8.662;2023-06-22T06:27:54;-23432.97;;;25.37;100.00
24651;BME280;12783;48.824;8.662;2023-06-22T06:30:22;-23438.31;;;25.56;100.00
24651;BME280;12783;48.824;8.662;2023-06-22T06:32:50;-23438.31;;;25.56;100.00
24651;BME280;12783;48.824;8.662;2023-06-22T06:35:17;-23437.44;;;25.53;100.00
24651;BME280;12783;48.824;8.662;2023-06-22T06:37:48;-23445.13;;;25.80;100.00
24651;BME280;12783;48.824;8.662;2023-06-22T06:40:17;-23449.75;;;25.97;100.00
24651;BME280;12783;48.824;8.662;2023-06-22T06:42:48;-23448.03;;;25.90;100.00
24651;BME280;12783;48.824;8.662;2023-06-22T06:45:20;-23455.09;;;26.15;100.00
24651;BME280;12783;48.824;8.662;2023-06-22T06:47:51;-23458.88;;;26.29;100.00
24651;BME280;12783;48.824;8.662;2023-06-22T06:50:19;-23454.25;;;26.12;100.00
24651;BME280;12783;48.824;8.662;2023-06-22T06:52:46;-23459.72;;;26.32;100.00
24651;BME280;12783;48.824;8.662;2023-06-22T06:55:13;-23463.50;;;26.45;100.00
24651;BME280;12783;48.824;8.662;2023-06-22T06:57:42;-23466.69;;;26.56;100.00
24651;BME280;12783;48.824;8.662;2023-06-22T07:00:11;-23470.16;;;26.69;100.00
24651;BME280;12783;48.824;8.662;2023-06-22T07:02:44;-23478.81;;;26.99;100.00
24651;BME280;12783;48.824;8.662;2023-06-22T07:05:12;-23478.53;;;26.98;100.00
24651;BME280;12783;48.824;8.662;2023-06-22T07:07:40;-23479.41;;;27.01;100.00
24651;BME280;12783;48.824;8.662;2023-06-22T07:10:09;-23487.63;;;27.30;100.00
24651;BME280;12783;48.824;8.662;2023-06-22T07:12:36;-23487.78;;;27.31;100.00
24651;BME280;12783;48.824;8.662;2023-06-22T07:15:08;-23486.63;;;27.27;100.00
24651;BME280;12783;48.824;8.662;2023-06-22T07:17:36;-23488.06;;;27.32;100.00
24651;BME280;12783;48.824;8.662;2023-06-22T07:20:04;-23496.72;;;27.63;100.00
24651;BME280;12783;48.824;8.662;2023-06-22T07:22:42;-23507.41;;;28.00;100.00
24651;BME280;12783;48.824;8.662;2023-06-22T07:25:10;-23494.69;;;27.55;100.00
24651;BME280;12783;48.824;8.662;2023-06-22T07:28:04;-23513.50;;;28.29;100.00
24651;BME280;12783;48.824;8.662;2023-06-22T07:30:33;-23518.09;;;28.45;100.00
24651;BME280;12783;48.824;8.662;2023-06-22T07:33:01;-23510.31;;;28.18;100.00
24651;BME280;12783;48.824;8.662;2023-06-22T07:35:30;-23511.75;;;28.23;100.00
24651;BME280;12783;48.824;8.662;2023-06-22T07:37:58;-23521.84;;;28.59;100.00
24651;BME280;12783;48.824;8.662;2023-06-22T07:40:26;-22852.41;;;28.94;100.00
24651;BME280;12783;48.824;8.662;2023-06-22T07:42:53;-22857.69;;;29.13;100.00
24651;BME280;12783;48.824;8.662;2023-06-22T07:45:20;-22865.56;;;29.43;100.00
24651;BME280;12783;48.824;8.662;2023-06-22T07:47:48;-23202.16;;;29.30;100.00
24651;BME280;12783;48.824;8.662;2023-06-22T07:50:15;-21846.25;;;29.46;100.00
24651;BME280;12783;48.824;8.662;2023-06-22T07:52:42;-22186.59;;;29.47;100.00
24651;BME280;12783;48.824;8.662;2023-06-22T07:55:09;-22529.66;;;29.58;100.00
24651;BME280;12783;48.824;8.662;2023-06-22T07:57:36;-21850.16;;;29.61;100.00
24651;BME280;12783;48.824;8.662;2023-06-22T08:00:05;-22197.25;;;29.88;100.00
24651;BME280;12783;48.824;8.662;2023-06-22T08:02:41;-22196.72;;;29.86;100.00
24651;BME280;12783;48.824;8.662;2023-06-22T08:05:09;-22183.94;;;29.36;100.00
24651;BME280;12783;48.824;8.662;2023-06-22T08:07:57;-22517.69;;;29.13;100.00
24651;BME280;12783;48.824;8.662;2023-06-22T08:10:24;-22503.84;;;28.61;100.00
24651;BME280;12783;48.824;8.662;2023-06-22T08:12:51;-22836.75;;;28.36;100.00
24651;BME280;12783;48.824;8.662;2023-06-22T08:15:19;-22836.03;;;28.34;100.00
24651;BME280;12783;48.824;8.662;2023-06-22T08:17:46;-23173.47;;;28.27;100.00
24651;BME280;12783;48.824;8.662;2023-06-22T08:20:14;-22832.03;;;28.19;100.00
24651;BME280;12783;48.824;8.662;2023-06-22T08:22:42;-23171.75;;;28.20;100.00
24651;BME280;12783;48.824;8.662;2023-06-22T08:25:09;-23170.47;;;28.16;100.00
24651;BME280;12783;48.824;8.662;2023-06-22T08:27:37;-23177.84;;;28.42;100.00
24651;BME280;12783;48.824;8.662;2023-06-22T08:30:06;-23181.94;;;28.57;100.00
24651;BME280;12783;48.824;8.662;2023-06-22T08:32:33;-23169.50;;;28.12;100.00
24651;BME280;12783;48.824;8.662;2023-06-22T08:35:00;-23493.00;;;27.57;100.00
24651;BME280;12783;48.824;8.662;2023-06-22T08:37:28;-23487.09;;;27.36;100.00
24651;BME280;12783;48.824;8.662;2023-06-22T08:40:08;-23492.41;;;27.47;100.00
24651;BME280;12783;48.824;8.662;2023-06-22T08:42:36;-23490.94;;;27.42;100.00
24651;BME280;12783;48.824;8.662;2023-06-22T08:45:04;-23495.72;;;27.59;100.00
24651;BME280;12783;48.824;8.662;2023-06-22T08:47:31;-23505.69;;;27.94;100.00
24651;BME280;12783;48.824;8.662;2023-06-22T08:49:58;-23515.47;;;28.29;100.00
24651;BME280;12783;48.824;8.662;2023-06-22T08:52:26;-23521.69;;;28.51;100.00
24651;BME280;12783;48.824;8.662;2023-06-22T08:54:53;-23508.28;;;28.04;100.00
24651;BME280;12783;48.824;8.662;2023-06-22T08:57:21;-23523.84;;;28.59;100.00
24651;BME280;12783;48.824;8.662;2023-06-22T08:59:48;-23551.22;;;29.63;100.00
24651;BME280;12783;48.824;8.662;2023-06-22T09:02:15;-23227.56;;;30.22;100.00
24651;BME280;12783;48.824;8.662;2023-06-22T09:04:41;-22900.44;;;30.71;100.00
24651;BME280;12783;48.824;8.662;2023-06-22T09:07:09;-22208.69;;;30.32;100.00
24651;BME280;12783;48.824;8.662;2023-06-22T09:09:36;-22879.00;;;29.92;100.00
24651;BME280;12783;48.824;8.662;2023-06-22T09:12:04;-22564.34;;;30.89;100.00
24651;BME280;12783;48.824;8.662;2023-06-22T09:14:31;-22241.31;;;31.57;100.00
24651;BME280;12783;48.824;8.662;2023-06-22T09:16:58;-20544.78;;;32.00;100.00
24651;BME280;12783;48.824;8.662;2023-06-22T09:19:25;-20550.00;;;32.22;100.00
24651;BME280;12783;48.824;8.662;2023-06-22T09:21:52;-19867.75;;;32.28;100.00
24651;BME280;12783;48.824;8.662;2023-06-22T09:24:18;-21225.66;;;31.91;100.00
24651;BME280;12783;48.824;8.662;2023-06-22T09:26:45;-19880.00;;;32.83;100.00
24651;BME280;12783;48.824;8.662;2023-06-22T09:29:12;-19201.09;;;33.09;100.00
24651;BME280;12783;48.824;8.662;2023-06-22T09:31:39;-15781.34;;;33.42;100.00
24651;BME280;12783;48.824;8.662;2023-06-22T09:34:06;-17832.50;;;33.14;100.00
24651;BME280;12783;48.824;8.662;2023-06-22T09:36:33;-18833.19;;;31.84;100.00
24651;BME280;12783;48.824;8.662;2023-06-22T09:39:00;-19501.75;;;31.16;100.00
24651;BME280;12783;48.824;8.662;2023-06-22T09:41:32;-20864.81;;;31.09;100.00
24651;BME280;12783;48.824;8.662;2023-06-22T09:43:59;-19171.94;;;31.71;100.00
24651;BME280;12783;48.824;8.662;2023-06-22T09:46:26;-19168.59;;;31.55;100.00
24651;BME280;12783;48.824;8.662;2023-06-22T09:48:53;-19860.59;;;31.96;100.00
24651;BME280;12783;48.824;8.662;2023-06-22T09:51:20;-14394.34;;;32.30;100.00
24651;BME280;12783;48.824;8.662;2023-06-22T09:53:48;-16446.56;;;32.21;100.00
24651;BME280;12783;48.824;8.662;2023-06-22T09:56:16;-14391.47;;;32.09;100.00
24651;BME280;12783;48.824;8.662;2023-06-22T09:58:45;-19518.16;;;31.92;100.00
24651;BME280;12783;48.824;8.662;2023-06-22T10:01:13;-21903.22;;;31.70;100.00
24651;BME280;12783;48.824;8.662;2023-06-22T10:03:43;-22584.38;;;31.64;100.00
24651;BME280;12783;48.824;8.662;2023-06-22T10:06:10;-22580.72;;;31.51;100.00
24651;BME280;12783;48.824;8.662;2023-06-22T10:08:37;-22577.63;;;31.39;100.00
24651;BME280;12783;48.824;8.662;2023-06-22T10:11:04;-22579.91;;;31.48;100.00
24651;BME280;12783;48.824;8.662;2023-06-22T10:13:31;-22589.50;;;31.84;100.00
24651;BME280;12783;48.824;8.662;2023-06-22T10:15:58;-22584.09;;;31.63;100.00
24651;BME280;12783;48.824;8.662;2023-06-22T10:18:24;-23253.75;;;31.17;100.00
24651;BME280;12783;48.824;8.662;2023-06-22T10:20:52;-21897.50;;;31.47;100.00
24651;BME280;12783;48.824;8.662;2023-06-22T10:23:20;-22580.06;;;31.48;100.00
24651;BME280;12783;48.824;8.662;2023-06-22T10:25:47;-22589.25;;;31.83;100.00
24651;BME280;12783;48.824;8.662;2023-06-22T10:28:14;-21897.38;;;31.47;100.00
24651;BME280;12783;48.824;8.662;2023-06-22T10:30:42;-20542.75;;;31.91;100.00
24651;BME280;12783;48.824;8.662;2023-06-22T10:33:10;-21915.16;;;32.17;100.00
24651;BME280;12783;48.824;8.662;2023-06-22T10:35:38;-21909.19;;;31.93;100.00
24651;BME280;12783;48.824;8.662;2023-06-22T10:38:05;59356.41;;;-144.89;100.00
24651;BME280;12783;48.824;8.662;2023-06-22T10:40:33;59356.41;;;-144.89;100.00
24651;BME280;12783;48.824;8.662;2023-06-22T10:43:00;59356.41;;;-144.89;100.00
24651;BME280;12783;48.824;8.662;2023-06-22T10:45:27;59356.41;;;-144.89;100.00
24651;BME280;12783;48.824;8.662;2023-06-22T10:47:55;59356.41;;;-144.89;100.00
24651;BME280;12783;48.824;8.662;2023-06-22T10:50:22;59356.41;;;-144.89;100.00
24651;BME280;12783;48.824;8.662;2023-06-22T10:52:51;59356.41;;;-144.89;100.00
24651;BME280;12783;48.824;8.662;2023-06-22T10:55:18;59356.41;;;-144.89;100.00
24651;BME280;12783;48.824;8.662;2023-06-22T10:57:45;59356.41;;;-144.89;100.00
24651;BME280;12783;48.824;8.662;2023-06-22T11:00:15;59356.41;;;-144.89;100.00
24651;BME280;12783;48.824;8.662;2023-06-22T11:02:43;59356.41;;;-144.89;100.00
24651;BME280;12783;48.824;8.662;2023-06-22T11:05:11;59356.41;;;-144.89;100.00
24651;BME280;12783;48.824;8.662;2023-06-22T11:07:42;59356.41;;;-144.89;100.00
24651;BME280;12783;48.824;8.662;2023-06-22T11:10:11;59356.41;;;-144.89;100.00
24651;BME280;12783;48.824;8.662;2023-06-22T11:12:38;59356.41;;;-144.89;100.00
24651;BME280;12783;48.824;8.662;2023-06-22T11:15:06;59356.41;;;-144.89;100.00
24651;BME280;12783;48.824;8.662;2023-06-22T11:17:34;59356.41;;;-144.89;100.00
24651;BME280;12783;48.824;8.662;2023-06-22T11:20:01;59356.41;;;-144.89;100.00
24651;BME280;12783;48.824;8.662;2023-06-22T11:22:31;59356.41;;;-144.89;100.00
24651;BME280;12783;48.824;8.662;2023-06-22T11:25:00;59356.41;;;-144.89;100.00
24651;BME280;12783;48.824;8.662;2023-06-22T11:27:27;59356.41;;;-144.89;100.00
24651;BME280;12783;48.824;8.662;2023-06-22T11:29:54;59356.41;;;-144.89;100.00
24651;BME280;12783;48.824;8.662;2023-06-22T11:32:22;59356.41;;;-144.89;100.00
24651;BME280;12783;48.824;8.662;2023-06-22T11:34:49;59356.41;;;-144.89;100.00
24651;BME280;12783;48.824;8.662;2023-06-22T11:37:18;-21909.19;;;31.93;100.00
24651;BME280;12783;48.824;8.662;2023-06-22T11:39:45;-21244.91;;;32.70;100.00
24651;BME280;12783;48.824;8.662;2023-06-22T11:42:25;-21915.94;;;32.20;100.00
24651;BME280;12783;48.824;8.662;2023-06-22T11:44:52;-21913.09;;;32.08;100.00
24651;BME280;12783;48.824;8.662;2023-06-22T11:47:18;-21566.75;;;31.89;100.00
24651;BME280;12783;48.824;8.662;2023-06-22T11:49:46;-22246.34;;;31.77;100.00
24651;BME280;12783;48.824;8.662;2023-06-22T11:52:13;-21217.59;;;31.57;100.00
24651;BME280;12783;48.824;8.662;2023-06-22T11:54:40;-21217.34;;;31.56;100.00
24651;BME280;12783;48.824;8.662;2023-06-22T11:57:06;-20878.44;;;31.67;100.00
24651;BME280;12783;48.824;8.662;2023-06-22T11:59:33;-21221.56;;;31.74;100.00
24651;BME280;12783;48.824;8.662;2023-06-22T12:02:00;-20881.84;;;31.81;100.00
24651;BME280;12783;48.824;8.662;2023-06-22T12:04:27;-20542.66;;;31.91;100.00
24651;BME280;12783;48.824;8.662;2023-06-22T12:06:54;-20544.06;;;31.97;100.00
24651;BME280;12783;48.824;8.662;2023-06-22T12:09:21;-20204.91;;;32.07;100.00
24651;BME280;12783;48.824;8.662;2023-06-22T12:11:48;-20548.81;;;32.17;100.00
24651;BME280;12783;48.824;8.662;2023-06-22T12:14:15;-20550.59;;;32.25;100.00
24651;BME280;12783;48.824;8.662;2023-06-22T12:16:42;-20211.66;;;32.37;100.00
24651;BME280;12783;48.824;8.662;2023-06-22T12:19:11;-19187.50;;;32.44;100.00
24651;BME280;12783;48.824;8.662;2023-06-22T12:21:38;-19531.44;;;32.53;100.00
24651;BME280;12783;48.824;8.662;2023-06-22T12:24:07;59356.41;;;-144.89;100.00
24651;BME280;12783;48.824;8.662;2023-06-22T12:26:34;-19207.53;;;33.39;100.00
24651;BME280;12783;48.824;8.662;2023-06-22T12:29:01;-15443.81;;;33.77;100.00
24651;BME280;12783;48.824;8.662;2023-06-22T12:31:28;59356.41;;;-144.89;100.00
24651;BME280;12783;48.824;8.662;2023-06-22T12:33:55;-12015.97;;;34.26;100.00
24651;BME280;12783;48.824;8.662;2023-06-22T12:36:22;-16137.53;;;34.24;100.00
24651;BME280;12783;48.824;8.662;2023-06-22T12:38:49;-11327.88;;;34.19;100.00
24651;BME280;12783;48.824;8.662;2023-06-22T12:41:16;81473.03;;;34.08;100.00
24651;BME280;12783;48.824;8.662;2023-06-22T12:43:43;-20581.44;;;33.58;100.00